createdAt,value
2018-06-04T00:00:31.609Z,17.96
2018-06-04T00:03:01.341Z,17.87
2018-06-04T00:05:31.067Z,17.86
2018-06-04T00:08:07.061Z,17.84
2018-06-04T00:10:36.805Z,17.77
2018-06-04T00:13:06.817Z,17.75
2018-06-04T00:15:36.800Z,17.61
2018-06-04T00:18:06.592Z,17.44
2018-06-04T00:20:36.339Z,17.46
2018-06-04T00:23:06.166Z,17.37
2018-06-04T00:25:35.881Z,17.53
2018-06-04T00:28:05.886Z,17.52
2018-06-04T00:30:35.577Z,17.57
2018-06-04T00:33:05.349Z,17.54
2018-06-04T00:35:35.036Z,17.52
2018-06-04T00:38:04.807Z,17.45
2018-06-04T00:40:34.577Z,17.41
2018-06-04T00:43:04.300Z,17.47
2018-06-04T00:45:34.013Z,17.46
2018-06-04T00:48:03.752Z,17.49
2018-06-04T00:50:33.463Z,17.33
2018-06-04T00:53:03.250Z,17.26
2018-06-04T00:55:38.341Z,17.30
2018-06-04T00:58:08.091Z,17.34
2018-06-04T01:00:38.170Z,17.37
2018-06-04T01:03:07.873Z,17.44
2018-06-04T01:05:37.597Z,17.41
2018-06-04T01:08:07.305Z,17.22
2018-06-04T01:10:36.993Z,17.29
2018-06-04T01:13:06.820Z,17.33
2018-06-04T01:15:36.527Z,17.34
2018-06-04T01:18:06.284Z,17.33
2018-06-04T01:20:35.988Z,17.21
2018-06-04T01:23:05.652Z,17.14
2018-06-04T01:25:35.414Z,17.11
2018-06-04T01:28:05.109Z,17.10
2018-06-04T01:30:34.787Z,17.13
2018-06-04T01:33:04.570Z,16.98
2018-06-04T01:35:34.277Z,17.00
2018-06-04T01:38:04.003Z,17.07
2018-06-04T01:40:33.756Z,17.10
2018-06-04T01:43:03.496Z,17.02
2018-06-04T01:45:33.256Z,17.03
2018-06-04T01:48:02.937Z,17.04
2018-06-04T01:50:32.638Z,17.09
2018-06-04T01:53:02.434Z,17.02
2018-06-04T01:55:32.119Z,16.94
2018-06-04T01:58:01.833Z,16.98
2018-06-04T02:00:31.591Z,16.99
2018-06-04T02:03:01.270Z,16.94
2018-06-04T02:05:31.431Z,16.90
2018-06-04T02:08:01.126Z,16.80
2018-06-04T02:10:30.847Z,16.87
2018-06-04T02:13:00.594Z,16.87
2018-06-04T02:15:30.303Z,16.73
2018-06-04T02:17:59.977Z,16.57
2018-06-04T02:20:29.689Z,16.48
2018-06-04T02:22:59.395Z,16.44
2018-06-04T02:25:29.138Z,16.44
2018-06-04T02:27:58.821Z,16.54
2018-06-04T02:30:28.543Z,16.50
2018-06-04T02:32:58.283Z,16.30
2018-06-04T02:35:28.034Z,16.19
2018-06-04T02:37:57.720Z,16.00
2018-06-04T02:40:27.476Z,15.97
2018-06-04T02:42:57.179Z,15.99
2018-06-04T02:45:26.915Z,16.14
2018-06-04T02:47:56.959Z,16.23
2018-06-04T02:50:26.657Z,16.18
2018-06-04T02:52:56.393Z,16.09
2018-06-04T02:55:26.111Z,16.00
2018-06-04T02:57:55.863Z,16.00
2018-06-04T03:00:25.914Z,15.79
2018-06-04T03:02:55.663Z,15.75
2018-06-04T03:05:25.399Z,15.80
2018-06-04T03:07:55.172Z,15.91
2018-06-04T03:10:24.874Z,15.98
2018-06-04T03:12:54.554Z,15.96
2018-06-04T03:15:24.336Z,15.95
2018-06-04T03:17:54.000Z,15.98
2018-06-04T03:20:23.662Z,16.02
2018-06-04T03:22:53.425Z,16.03
2018-06-04T03:25:23.098Z,15.92
2018-06-04T03:27:52.769Z,15.84
2018-06-04T03:30:22.518Z,15.75
2018-06-04T03:32:52.211Z,15.73
2018-06-04T03:35:21.918Z,15.62
2018-06-04T03:37:51.900Z,15.68
2018-06-04T03:40:21.581Z,15.59
2018-06-04T03:42:51.297Z,15.61
2018-06-04T03:45:20.971Z,15.55
2018-06-04T03:47:50.657Z,15.55
2018-06-04T03:50:20.406Z,15.55
2018-06-04T03:52:50.072Z,15.68
2018-06-04T03:55:19.819Z,15.63
2018-06-04T03:57:49.534Z,15.66
2018-06-04T04:00:19.216Z,15.67
2018-06-04T04:02:48.901Z,15.67
2018-06-04T04:05:18.624Z,15.82
2018-06-04T04:07:48.316Z,15.91
2018-06-04T04:10:18.150Z,15.91
2018-06-04T04:12:47.827Z,15.97
2018-06-04T04:15:17.572Z,16.11
2018-06-04T04:17:47.289Z,16.22
2018-06-04T04:20:16.988Z,16.18
2018-06-04T04:22:46.709Z,16.20
2018-06-04T04:25:16.427Z,16.26
2018-06-04T04:27:46.212Z,16.29
2018-06-04T04:30:15.913Z,16.39
2018-06-04T04:32:45.861Z,16.50
2018-06-04T04:35:15.579Z,16.62
2018-06-04T04:37:45.344Z,16.63
2018-06-04T04:40:15.052Z,16.63
2018-06-04T04:42:44.753Z,16.66
2018-06-04T04:45:14.486Z,16.64
2018-06-04T04:47:44.171Z,16.69
2018-06-04T04:50:16.907Z,16.72
2018-06-04T04:52:46.649Z,16.80
2018-06-04T04:55:16.379Z,16.89
2018-06-04T04:57:46.146Z,16.95
2018-06-04T05:00:15.828Z,16.98
2018-06-04T05:02:45.538Z,17.15
2018-06-04T05:05:15.274Z,17.22
2018-06-04T05:07:45.003Z,17.25
2018-06-04T05:10:15.108Z,17.39
2018-06-04T05:12:44.817Z,17.46
2018-06-04T05:15:14.548Z,17.55
2018-06-04T05:17:44.969Z,17.65
2018-06-04T05:20:14.648Z,17.72
2018-06-04T05:22:44.394Z,17.75
2018-06-04T05:25:14.101Z,17.75
2018-06-04T05:27:43.805Z,17.75
2018-06-04T05:30:13.532Z,17.85
2018-06-04T05:32:43.225Z,17.82
2018-06-04T05:35:12.943Z,17.80
2018-06-04T05:37:42.655Z,17.83
2018-06-04T05:40:12.368Z,17.93
2018-06-04T05:42:42.536Z,18.01
2018-06-04T05:45:12.220Z,18.09
2018-06-04T05:47:41.912Z,18.11
2018-06-04T05:50:11.692Z,18.20
2018-06-04T05:52:41.433Z,18.22
2018-06-04T05:55:11.225Z,18.35
2018-06-04T05:57:40.920Z,18.40
2018-06-04T06:00:10.664Z,18.52
2018-06-04T06:02:40.393Z,18.58
2018-06-04T06:05:10.137Z,18.52
2018-06-04T06:07:39.835Z,18.65
2018-06-04T06:10:09.553Z,18.75
2018-06-04T06:12:39.285Z,18.82
2018-06-04T06:15:09.081Z,18.82
2018-06-04T06:17:38.771Z,18.90
2018-06-04T06:20:08.499Z,19.02
2018-06-04T06:22:38.262Z,19.09
2018-06-04T06:25:08.061Z,19.08
2018-06-04T06:27:37.745Z,19.23
2018-06-04T06:30:07.493Z,19.32
2018-06-04T06:32:37.194Z,19.45
2018-06-04T06:35:07.013Z,19.59
2018-06-04T06:37:36.759Z,19.69
2018-06-04T06:40:06.541Z,19.60
2018-06-04T06:42:36.302Z,19.74
2018-06-04T06:45:06.072Z,19.79
2018-06-04T06:47:35.804Z,19.92
2018-06-04T06:50:06.002Z,20.05
2018-06-04T06:52:35.780Z,20.15
2018-06-04T06:55:05.469Z,20.28
2018-06-04T06:57:35.491Z,20.48
2018-06-04T07:00:05.304Z,20.65
2018-06-04T07:02:34.981Z,20.78
2018-06-04T07:05:04.854Z,20.88
2018-06-04T07:07:34.943Z,20.93
2018-06-04T07:10:04.732Z,20.98
2018-06-04T07:12:34.431Z,21.11
2018-06-04T07:15:04.274Z,21.31
2018-06-04T07:17:33.971Z,21.28
2018-06-04T07:20:03.756Z,21.42
2018-06-04T07:22:33.524Z,21.54
2018-06-04T07:25:03.240Z,21.72
2018-06-04T07:27:33.394Z,21.82
2018-06-04T07:30:03.097Z,21.87
2018-06-04T07:32:32.792Z,22.10
2018-06-04T07:35:02.520Z,22.30
2018-06-04T07:37:32.212Z,22.46
2018-06-04T07:40:01.920Z,22.42
2018-06-04T07:42:31.655Z,22.53
2018-06-04T07:45:01.667Z,22.54
2018-06-04T07:47:34.655Z,22.43
2018-06-04T07:50:04.489Z,22.51
2018-06-04T07:52:34.223Z,22.59
2018-06-04T07:55:03.953Z,22.62
2018-06-04T07:57:33.659Z,22.64
2018-06-04T08:00:03.968Z,22.92
2018-06-04T08:02:33.661Z,22.92
2018-06-04T08:05:03.420Z,23.02
2018-06-04T08:07:33.102Z,23.12
2018-06-04T08:10:02.862Z,23.13
2018-06-04T08:12:32.570Z,22.97
2018-06-04T08:15:02.232Z,23.07
2018-06-04T08:17:31.943Z,23.15
2018-06-04T08:20:01.666Z,23.16
2018-06-04T08:22:31.357Z,23.26
2018-06-04T08:25:01.074Z,23.27
2018-06-04T08:27:30.751Z,23.43
2018-06-04T08:30:00.443Z,23.65
2018-06-04T08:32:30.164Z,23.70
2018-06-04T08:34:59.828Z,23.50
2018-06-04T08:37:29.544Z,23.59
2018-06-04T08:39:59.249Z,23.52
2018-06-04T08:42:28.908Z,23.21
2018-06-04T08:44:58.559Z,23.22
2018-06-04T08:47:28.300Z,23.26
2018-06-04T08:49:57.975Z,23.19
2018-06-04T08:52:27.641Z,23.55
2018-06-04T08:54:57.357Z,23.96
2018-06-04T08:57:27.495Z,24.19
2018-06-04T08:59:57.244Z,24.22
2018-06-04T09:02:26.926Z,24.05
2018-06-04T09:04:56.588Z,24.11
2018-06-04T09:07:26.332Z,24.22
2018-06-04T09:09:56.031Z,24.53
2018-06-04T09:12:25.794Z,24.57
2018-06-04T09:14:55.488Z,24.70
2018-06-04T09:17:25.220Z,24.90
2018-06-04T09:19:54.892Z,25.21
2018-06-04T09:22:24.590Z,25.45
2018-06-04T09:24:54.360Z,25.56
2018-06-04T09:27:24.162Z,25.69
2018-06-04T09:29:53.856Z,25.58
2018-06-04T09:32:23.616Z,25.78
2018-06-04T09:34:53.301Z,25.87
2018-06-04T09:37:22.961Z,26.02
2018-06-04T09:39:52.724Z,25.81
2018-06-04T09:42:22.392Z,25.51
2018-06-04T09:44:52.145Z,25.13
2018-06-04T09:47:21.825Z,24.86
2018-06-04T09:49:51.519Z,24.66
2018-06-04T09:52:21.254Z,24.39
2018-06-04T09:54:50.948Z,24.54
2018-06-04T09:57:20.626Z,24.85
2018-06-04T09:59:50.352Z,25.25
2018-06-04T10:02:20.069Z,25.63
2018-06-04T10:04:49.752Z,25.91
2018-06-04T10:07:19.484Z,26.11
2018-06-04T10:09:49.169Z,26.23
2018-06-04T10:12:18.946Z,26.33
2018-06-04T10:14:48.636Z,26.31
2018-06-04T10:17:18.387Z,26.24
2018-06-04T10:19:48.088Z,26.40
2018-06-04T10:22:17.762Z,26.26
2018-06-04T10:24:47.473Z,26.14
2018-06-04T10:27:17.168Z,25.85
2018-06-04T10:29:46.872Z,25.93
2018-06-04T10:32:16.590Z,26.24
2018-06-04T10:34:46.282Z,26.62
2018-06-04T10:37:15.988Z,26.72
2018-06-04T10:39:45.737Z,26.48
2018-06-04T10:42:15.430Z,26.21
2018-06-04T10:44:45.162Z,26.26
2018-06-04T10:47:14.884Z,26.60
2018-06-04T10:49:44.661Z,26.81
2018-06-04T10:52:14.393Z,27.10
2018-06-04T10:54:44.090Z,27.19
2018-06-04T10:57:13.780Z,27.19
2018-06-04T10:59:43.504Z,27.09
2018-06-04T11:02:13.178Z,27.02
2018-06-04T11:04:42.873Z,27.15
2018-06-04T11:07:12.619Z,27.44
2018-06-04T11:09:42.296Z,27.64
2018-06-04T11:12:11.979Z,27.81
2018-06-04T11:14:41.850Z,27.86
2018-06-04T11:17:11.485Z,28.15
2018-06-04T11:19:41.180Z,28.42
2018-06-04T11:22:10.856Z,28.45
2018-06-04T11:24:40.525Z,28.21
2018-06-04T11:27:10.253Z,27.76
2018-06-04T11:29:39.934Z,27.42
2018-06-04T11:32:09.667Z,27.24
2018-06-04T11:34:39.377Z,26.98
2018-06-04T11:37:09.044Z,27.03
2018-06-04T11:39:38.712Z,27.21
2018-06-04T11:42:08.711Z,27.29
2018-06-04T11:44:38.401Z,27.06
2018-06-04T11:47:08.105Z,27.00
2018-06-04T11:49:37.795Z,26.92
2018-06-04T11:52:07.482Z,26.86
2018-06-04T11:54:37.198Z,27.29
2018-06-04T11:57:06.895Z,27.47
2018-06-04T11:59:36.568Z,27.70
2018-06-04T12:02:06.327Z,27.89
2018-06-04T12:04:35.989Z,27.57
2018-06-04T12:07:05.696Z,27.62
2018-06-04T12:09:35.433Z,27.38
2018-06-04T12:12:05.130Z,27.22
2018-06-04T12:14:34.860Z,26.98
2018-06-04T12:17:04.557Z,27.12
2018-06-04T12:19:34.261Z,27.48
2018-06-04T12:22:03.976Z,27.93
2018-06-04T12:24:33.623Z,28.01
2018-06-04T12:27:03.518Z,27.83
2018-06-04T12:29:33.212Z,27.88
2018-06-04T12:32:02.900Z,28.36
2018-06-04T12:34:32.644Z,28.75
2018-06-04T12:37:02.329Z,29.12
2018-06-04T12:39:32.043Z,29.32
2018-06-04T12:42:01.760Z,28.77
2018-06-04T12:44:31.451Z,28.36
2018-06-04T12:47:01.152Z,28.23
2018-06-04T12:49:30.843Z,28.62
2018-06-04T12:52:00.594Z,28.89
2018-06-04T12:54:30.244Z,29.08
2018-06-04T12:56:59.909Z,29.38
2018-06-04T12:59:29.611Z,29.32
2018-06-04T13:01:59.304Z,29.55
2018-06-04T13:04:29.043Z,29.79
2018-06-04T13:06:58.757Z,29.77
2018-06-04T13:09:28.441Z,29.64
2018-06-04T13:11:58.158Z,29.56
2018-06-04T13:14:27.838Z,29.49
2018-06-04T13:16:57.513Z,29.65
2018-06-04T13:19:27.213Z,29.60
2018-06-04T13:21:56.913Z,29.74
2018-06-04T13:24:26.580Z,29.53
2018-06-04T13:26:56.303Z,29.45
2018-06-04T13:29:25.971Z,29.49
2018-06-04T13:31:55.643Z,29.36
2018-06-04T13:34:25.546Z,28.87
2018-06-04T13:36:55.216Z,28.27
2018-06-04T13:39:24.886Z,28.00
2018-06-04T13:41:54.887Z,28.12
2018-06-04T13:44:24.596Z,27.80
2018-06-04T13:46:54.318Z,27.57
2018-06-04T13:49:24.007Z,27.44
2018-06-04T13:51:53.692Z,27.30
2018-06-04T13:54:23.412Z,27.40
2018-06-04T13:56:53.072Z,27.60
2018-06-04T13:59:22.734Z,27.98
2018-06-04T14:01:52.453Z,28.37
2018-06-04T14:04:22.098Z,28.63
2018-06-04T14:06:51.772Z,28.64
2018-06-04T14:09:21.520Z,28.50
2018-06-04T14:11:51.209Z,28.81
2018-06-04T14:14:20.866Z,28.69
2018-06-04T14:16:50.568Z,28.67
2018-06-04T14:19:20.264Z,28.63
2018-06-04T14:21:49.943Z,28.24
2018-06-04T14:24:19.652Z,27.83
2018-06-04T14:26:49.341Z,27.86
2018-06-04T14:29:19.089Z,28.22
2018-06-04T14:31:48.746Z,28.43
2018-06-04T14:34:18.466Z,28.52
2018-06-04T14:36:48.179Z,28.57
2018-06-04T14:39:17.859Z,28.43
2018-06-04T14:41:47.535Z,28.49
2018-06-04T14:44:17.319Z,28.19
2018-06-04T14:46:47.236Z,28.14
2018-06-04T14:49:17.452Z,28.04
2018-06-04T14:51:47.149Z,27.89
2018-06-04T14:54:16.840Z,27.70
2018-06-04T14:56:47.464Z,27.58
2018-06-04T14:59:17.112Z,27.52
2018-06-04T15:01:46.839Z,27.44
2018-06-04T15:04:16.517Z,27.41
2018-06-04T15:06:46.275Z,27.29
2018-06-04T15:09:16.004Z,27.16
2018-06-04T15:11:45.700Z,27.02
2018-06-04T15:14:15.368Z,26.82
2018-06-04T15:16:45.069Z,26.71
2018-06-04T15:19:14.732Z,26.71
2018-06-04T15:21:44.452Z,26.82
2018-06-04T15:24:14.149Z,26.68
2018-06-04T15:26:43.892Z,26.71
2018-06-04T15:29:13.568Z,26.48
2018-06-04T15:31:43.330Z,26.43
2018-06-04T15:34:13.012Z,26.49
2018-06-04T15:36:42.707Z,26.34
2018-06-04T15:39:12.751Z,26.26
2018-06-04T15:41:42.453Z,26.32
2018-06-04T15:44:12.152Z,26.27
2018-06-04T15:46:41.857Z,26.22
2018-06-04T15:49:11.597Z,26.20
2018-06-04T15:51:41.344Z,26.19
2018-06-04T15:54:11.035Z,26.17
2018-06-04T15:56:40.738Z,26.03
2018-06-04T15:59:10.473Z,25.91
2018-06-04T16:01:40.167Z,25.86
2018-06-04T16:04:09.822Z,25.84
2018-06-04T16:06:39.532Z,25.83
2018-06-04T16:09:09.222Z,25.88
2018-06-04T16:11:38.890Z,25.82
2018-06-04T16:14:08.633Z,25.89
2018-06-04T16:16:38.312Z,25.82
2018-06-04T16:19:08.113Z,25.67
2018-06-04T16:21:37.779Z,25.48
2018-06-04T16:24:07.516Z,25.45
2018-06-04T16:26:37.226Z,25.50
2018-06-04T16:29:07.095Z,25.45
2018-06-04T16:31:36.788Z,25.37
2018-06-04T16:34:06.523Z,25.29
2018-06-04T16:36:36.237Z,25.27
2018-06-04T16:39:09.072Z,25.27
2018-06-04T16:41:38.948Z,25.27
2018-06-04T16:44:08.626Z,25.24
2018-06-04T16:46:38.353Z,25.20
2018-06-04T16:49:08.034Z,25.27
2018-06-04T16:51:37.672Z,25.18
2018-06-04T16:54:07.368Z,25.16
2018-06-04T16:56:36.956Z,25.07
2018-06-04T16:59:06.571Z,25.04
2018-06-04T17:01:36.243Z,25.06
2018-06-04T17:04:05.917Z,24.95
2018-06-04T17:06:36.033Z,24.95
2018-06-04T17:09:07.675Z,24.86
2018-06-04T17:11:37.283Z,24.88
2018-06-04T17:14:06.915Z,24.90
2018-06-04T17:16:36.660Z,24.92
2018-06-04T17:19:06.331Z,24.77
2018-06-04T17:21:36.309Z,24.62
2018-06-04T17:24:06.020Z,24.65
2018-06-04T17:26:35.700Z,24.47
2018-06-04T17:29:05.479Z,24.40
2018-06-04T17:31:35.256Z,24.28
2018-06-04T17:34:04.951Z,24.20
2018-06-04T17:36:34.659Z,24.07
2018-06-04T17:39:06.100Z,23.99
2018-06-04T17:41:36.241Z,23.87
2018-06-04T17:44:05.948Z,23.80
2018-06-04T17:46:35.669Z,23.75
2018-06-04T17:49:05.438Z,23.70
2018-06-04T17:51:35.148Z,23.70
2018-06-04T17:54:04.872Z,23.60
2018-06-04T17:56:34.618Z,23.55
2018-06-04T17:59:04.363Z,23.37
2018-06-04T18:01:34.096Z,23.32
2018-06-04T18:04:03.880Z,23.28
2018-06-04T18:06:33.835Z,23.18
2018-06-04T18:09:03.866Z,23.17
2018-06-04T18:11:34.380Z,23.09
2018-06-04T18:14:04.228Z,22.92
2018-06-04T18:16:34.158Z,22.94
2018-06-04T18:19:03.892Z,22.91
2018-06-04T18:21:33.630Z,22.64
2018-06-04T18:24:03.429Z,22.57
2018-06-04T18:26:33.244Z,22.50
2018-06-04T18:29:03.025Z,22.53
2018-06-04T18:31:32.772Z,22.42
2018-06-04T18:34:02.524Z,22.33
2018-06-04T18:36:32.321Z,22.21
2018-06-04T18:39:02.128Z,22.21
2018-06-04T18:41:32.259Z,22.09
2018-06-04T18:44:01.972Z,22.07
2018-06-04T18:46:31.760Z,22.01
2018-06-04T18:49:01.599Z,21.91
2018-06-04T18:51:31.348Z,21.90
2018-06-04T18:54:01.161Z,21.83
2018-06-04T18:56:30.875Z,21.82
2018-06-04T18:59:00.910Z,21.70
2018-06-04T19:01:30.743Z,21.63
2018-06-04T19:04:00.451Z,21.52
2018-06-04T19:06:30.202Z,21.53
2018-06-04T19:09:00.119Z,21.52
2018-06-04T19:11:29.811Z,21.53
2018-06-04T19:13:59.621Z,21.38
2018-06-04T19:16:29.333Z,21.40
2018-06-04T19:18:59.100Z,21.33
2018-06-04T19:21:29.229Z,21.27
2018-06-04T19:23:58.933Z,21.26
2018-06-04T19:26:28.714Z,21.14
2018-06-04T19:28:58.430Z,21.10
2018-06-04T19:31:28.154Z,21.04
2018-06-04T19:33:57.844Z,20.92
2018-06-04T19:36:27.548Z,20.87
2018-06-04T19:38:57.300Z,20.80
2018-06-04T19:41:26.986Z,20.69
2018-06-04T19:43:56.637Z,20.60
2018-06-04T19:46:26.386Z,20.55
2018-06-04T19:48:56.086Z,20.52
2018-06-04T19:51:25.796Z,20.50
2018-06-04T19:53:55.552Z,20.41
2018-06-04T19:56:25.266Z,20.35
2018-06-04T19:58:55.012Z,20.27
2018-06-04T20:01:24.817Z,20.25
2018-06-04T20:03:54.499Z,20.20
2018-06-04T20:06:24.241Z,20.16
2018-06-04T20:08:53.934Z,20.07
2018-06-04T20:11:23.728Z,20.03
2018-06-04T20:13:53.470Z,19.94
2018-06-04T20:16:23.231Z,19.94
2018-06-04T20:18:52.914Z,19.87
2018-06-04T20:21:22.674Z,19.82
2018-06-04T20:23:52.394Z,19.74
2018-06-04T20:26:22.205Z,19.68
2018-06-04T20:28:51.908Z,19.61
2018-06-04T20:31:21.618Z,19.57
2018-06-04T20:33:51.354Z,19.62
2018-06-04T20:36:21.047Z,19.62
2018-06-04T20:38:50.731Z,19.56
2018-06-04T20:41:20.485Z,19.57
2018-06-04T20:43:50.153Z,19.60
2018-06-04T20:46:19.828Z,19.53
2018-06-04T20:48:49.567Z,19.53
2018-06-04T20:51:19.281Z,19.55
2018-06-04T20:53:48.988Z,19.48
2018-06-04T20:56:18.688Z,19.38
2018-06-04T20:58:48.344Z,19.47
2018-06-04T21:01:18.149Z,19.37
2018-06-04T21:03:47.840Z,19.42
2018-06-04T21:06:17.555Z,19.40
2018-06-04T21:08:47.304Z,19.38
2018-06-04T21:11:17.016Z,19.37
2018-06-04T21:13:46.694Z,19.37
2018-06-04T21:16:16.417Z,19.26
2018-06-04T21:18:46.074Z,19.23
2018-06-04T21:21:15.809Z,19.21
2018-06-04T21:23:45.479Z,19.18
2018-06-04T21:26:15.221Z,19.20
2018-06-04T21:28:44.895Z,19.21
2018-06-04T21:31:14.833Z,19.21
2018-06-04T21:33:44.591Z,19.24
2018-06-04T21:36:14.310Z,19.15
2018-06-04T21:38:44.046Z,19.20
2018-06-04T21:41:13.719Z,19.07
2018-06-04T21:43:43.396Z,19.08
2018-06-04T21:46:13.130Z,19.09
2018-06-04T21:48:47.625Z,19.07
2018-06-04T21:51:17.637Z,19.03
2018-06-04T21:53:47.297Z,19.00
2018-06-04T21:56:16.963Z,18.99
2018-06-04T21:58:46.695Z,18.91
2018-06-04T23:07:29.545Z,18.75
2018-06-04T23:09:59.273Z,18.77
2018-06-04T23:12:29.469Z,18.74
2018-06-04T23:14:59.163Z,18.70
2018-06-04T23:17:28.829Z,18.71
2018-06-04T23:19:58.575Z,18.74
2018-06-04T23:22:28.247Z,18.64
2018-06-04T23:24:57.914Z,18.58
2018-06-04T23:27:27.638Z,18.55
2018-06-04T23:29:57.315Z,18.51
2018-06-04T23:32:27.071Z,18.50
2018-06-04T23:34:56.828Z,18.52
2018-06-04T23:37:26.504Z,18.54
2018-06-04T23:39:56.240Z,18.58
2018-06-04T23:42:25.933Z,18.53
2018-06-04T23:44:55.617Z,18.56
2018-06-04T23:47:25.330Z,18.55
2018-06-04T23:49:55.011Z,18.59
2018-06-04T23:52:24.668Z,18.54
2018-06-04T23:54:54.374Z,18.46
2018-06-04T23:57:24.393Z,18.50
2018-06-04T23:59:54.108Z,18.46
